createdAt,value
2022-11-22T00:00:44.739Z,6.70
2022-11-22T00:03:15.255Z,6.70
2022-11-22T00:08:14.347Z,6.70
2022-11-22T00:10:44.159Z,6.60
2022-11-22T00:13:12.854Z,6.70
2022-11-22T00:15:41.665Z,6.80
2022-11-22T00:18:13.173Z,6.80
2022-11-22T00:20:41.326Z,6.70
2022-11-22T00:23:09.530Z,6.80
2022-11-22T00:25:37.837Z,6.80
2022-11-22T00:28:07.800Z,6.80
2022-11-22T00:30:35.990Z,6.80
2022-11-22T00:33:04.201Z,6.80
2022-11-22T00:35:32.592Z,6.90
2022-11-22T00:38:00.827Z,6.80
2022-11-22T00:40:28.932Z,6.80
2022-11-22T00:42:57.123Z,6.80
2022-11-22T00:45:26.653Z,6.80
2022-11-22T00:47:54.818Z,6.80
2022-11-22T00:50:23.038Z,6.90
2022-11-22T00:52:51.249Z,6.80
2022-11-22T00:55:19.370Z,6.90
2022-11-22T00:57:47.622Z,6.90
2022-11-22T01:00:16.441Z,7.00
2022-11-22T01:02:46.717Z,7.10
2022-11-22T01:05:14.847Z,7.10
2022-11-22T01:07:43.045Z,7.10
2022-11-22T01:10:11.717Z,7.20
2022-11-22T01:12:39.978Z,7.20
2022-11-22T01:15:09.044Z,7.10
2022-11-22T01:17:39.688Z,7.10
2022-11-22T01:20:11.107Z,7.20
2022-11-22T01:22:39.411Z,7.30
2022-11-22T01:25:09.086Z,7.20
2022-11-22T01:27:37.283Z,7.30
2022-11-22T01:30:06.503Z,7.30
2022-11-22T01:32:34.776Z,7.20
2022-11-22T01:35:03.062Z,7.20
2022-11-22T01:37:32.583Z,7.20
2022-11-22T01:40:00.808Z,7.30
2022-11-22T01:42:45.296Z,7.30
2022-11-22T01:45:45.932Z,7.00
2022-11-22T01:48:41.521Z,6.80
2022-11-22T01:51:18.657Z,6.70
2022-11-22T01:53:48.715Z,6.90
2022-11-22T01:56:20.679Z,7.00
2022-11-22T01:58:54.010Z,7.30
2022-11-22T02:01:22.493Z,7.10
2022-11-22T02:03:53.023Z,7.10
2022-11-22T02:06:22.397Z,7.00
2022-11-22T02:08:58.083Z,7.10
2022-11-22T02:11:33.666Z,7.20
2022-11-22T02:14:06.517Z,7.20
2022-11-22T02:16:36.245Z,7.30
2022-11-22T02:19:05.398Z,7.50
2022-11-22T02:21:34.288Z,7.50
2022-11-22T02:24:12.611Z,7.50
2022-11-22T02:26:42.279Z,7.60
2022-11-22T02:29:10.441Z,7.40
2022-11-22T02:31:43.972Z,7.20
2022-11-22T02:34:13.720Z,7.20
2022-11-22T02:36:46.982Z,7.10
2022-11-22T02:39:19.325Z,7.10
2022-11-22T02:41:50.018Z,7.10
2022-11-22T02:44:19.102Z,7.10
2022-11-22T02:46:52.307Z,7.00
2022-11-22T02:49:21.808Z,6.90
2022-11-22T02:51:51.123Z,7.00
2022-11-22T02:54:19.300Z,6.80
2022-11-22T02:56:49.103Z,6.90
2022-11-22T02:59:17.507Z,6.90
2022-11-22T03:01:47.717Z,6.90
2022-11-22T03:04:25.138Z,6.90
2022-11-22T03:06:55.802Z,6.90
2022-11-22T03:09:24.486Z,6.90
2022-11-22T03:11:56.488Z,7.00
2022-11-22T03:14:25.038Z,7.10
2022-11-22T03:16:53.565Z,7.10
2022-11-22T03:19:21.844Z,7.00
2022-11-22T03:21:50.099Z,7.00
2022-11-22T03:24:20.191Z,7.10
2022-11-22T03:26:49.513Z,7.20
2022-11-22T03:29:19.319Z,7.30
2022-11-22T03:31:47.800Z,7.20
2022-11-22T03:34:16.596Z,7.10
2022-11-22T03:36:47.755Z,6.90
2022-11-22T03:39:15.962Z,6.90
2022-11-22T03:41:44.208Z,6.90
2022-11-22T03:44:12.416Z,7.10
2022-11-22T03:46:42.083Z,7.10
2022-11-22T03:49:13.122Z,6.90
2022-11-22T03:51:41.429Z,6.80
2022-11-22T03:54:09.657Z,6.70
2022-11-22T03:56:37.887Z,6.90
2022-11-22T03:59:06.267Z,6.90
2022-11-22T04:01:34.657Z,6.90
2022-11-22T04:04:04.677Z,6.80
2022-11-22T04:06:33.059Z,6.80
2022-11-22T04:09:01.253Z,6.80
2022-11-22T04:11:29.589Z,6.70
2022-11-22T04:14:15.279Z,6.70
2022-11-22T04:16:43.888Z,6.60
2022-11-22T04:19:13.398Z,6.60
2022-11-22T04:21:40.712Z,6.50
2022-11-22T04:24:42.467Z,6.50
2022-11-22T04:27:10.591Z,6.40
2022-11-22T04:29:38.664Z,6.40
2022-11-22T04:32:24.189Z,6.40
2022-11-22T04:34:53.728Z,6.40
2022-11-22T04:37:21.939Z,6.30
2022-11-22T04:39:50.174Z,6.40
2022-11-22T04:42:35.762Z,6.40
2022-11-22T04:45:04.269Z,6.50
2022-11-22T04:47:50.586Z,6.40
2022-11-22T04:50:37.745Z,6.20
2022-11-22T04:53:06.145Z,6.10
2022-11-22T04:55:34.347Z,6.10
2022-11-22T04:58:02.994Z,6.20
2022-11-22T05:00:34.664Z,6.00
2022-11-22T05:03:03.741Z,5.80
2022-11-22T05:05:38.670Z,5.90
2022-11-22T05:08:08.312Z,5.90
2022-11-22T05:10:51.479Z,6.00
2022-11-22T05:13:20.042Z,6.20
2022-11-22T05:15:48.360Z,6.20
2022-11-22T05:18:16.673Z,6.40
2022-11-22T05:20:46.569Z,6.30
2022-11-22T05:23:32.900Z,6.30
2022-11-22T05:26:02.110Z,6.30
2022-11-22T05:28:31.839Z,6.30
2022-11-22T05:31:00.285Z,6.20
2022-11-22T05:33:28.533Z,6.30
2022-11-22T05:36:00.837Z,6.40
2022-11-22T05:38:29.206Z,6.40
2022-11-22T05:40:57.369Z,6.40
2022-11-22T05:43:25.661Z,6.60
2022-11-22T05:45:53.940Z,6.70
2022-11-22T05:48:22.223Z,6.90
2022-11-22T05:50:50.567Z,6.90
2022-11-22T05:53:20.155Z,7.10
2022-11-22T05:55:48.500Z,7.20
2022-11-22T05:58:16.741Z,7.30
2022-11-22T06:00:45.155Z,7.40
2022-11-22T06:03:13.445Z,7.30
2022-11-22T06:05:41.832Z,7.40
2022-11-22T06:08:13.217Z,7.40
2022-11-22T06:10:43.156Z,7.50
2022-11-22T06:13:11.612Z,7.50
2022-11-22T06:15:42.529Z,7.40
2022-11-22T06:18:12.954Z,7.40
2022-11-22T06:20:41.675Z,7.50
2022-11-22T06:23:09.979Z,7.50
2022-11-22T06:28:08.577Z,7.40
2022-11-22T06:30:37.021Z,7.60
2022-11-22T06:33:05.498Z,7.50
2022-11-22T06:35:33.808Z,7.70
2022-11-22T06:38:02.048Z,7.70
2022-11-22T06:40:32.457Z,7.60
2022-11-22T06:43:00.763Z,7.50
2022-11-22T06:45:32.420Z,7.00
2022-11-22T06:48:01.095Z,7.00
2022-11-22T06:50:29.408Z,7.10
2022-11-22T06:52:59.841Z,7.10
2022-11-22T06:55:49.544Z,7.20
2022-11-22T06:58:16.522Z,7.20
2022-11-22T07:05:52.286Z,7.30
2022-11-22T07:08:26.528Z,7.30
2022-11-22T07:13:27.360Z,7.40
2022-11-22T07:15:58.268Z,7.50
2022-11-22T07:21:04.737Z,7.40
2022-11-22T07:23:35.204Z,7.40
2022-11-22T07:26:05.921Z,7.20
2022-11-22T07:31:09.849Z,7.10
2022-11-22T07:33:38.239Z,7.10
2022-11-22T07:36:07.954Z,7.10
2022-11-22T07:41:08.958Z,7.20
2022-11-22T07:43:40.258Z,7.00
2022-11-22T07:46:18.299Z,7.00
2022-11-22T07:51:19.079Z,7.00
2022-11-22T07:53:48.095Z,7.10
2022-11-22T07:56:18.059Z,7.10
2022-11-22T07:58:47.557Z,7.20
2022-11-22T08:01:19.953Z,7.40
2022-11-22T08:03:50.733Z,7.40
2022-11-22T08:06:22.094Z,7.30
2022-11-22T08:08:50.657Z,7.30
2022-11-22T08:11:19.945Z,7.50
2022-11-22T08:13:49.919Z,7.50
2022-11-22T08:16:19.859Z,7.50
2022-11-22T08:18:49.556Z,7.30
2022-11-22T08:21:20.112Z,7.30
2022-11-22T08:26:44.456Z,7.40
2022-11-22T08:29:14.734Z,7.30
2022-11-22T08:34:13.270Z,7.20
2022-11-22T08:36:42.009Z,7.10
2022-11-22T08:41:42.721Z,7.10
2022-11-22T08:44:11.027Z,7.20
2022-11-22T08:46:39.422Z,7.30
2022-11-22T08:49:09.121Z,7.40
2022-11-22T08:51:38.231Z,7.30
2022-11-22T08:54:06.478Z,7.30
2022-11-22T08:56:34.830Z,7.30
2022-11-22T08:59:03.461Z,7.30
2022-11-22T09:01:32.435Z,7.30
2022-11-22T09:04:02.026Z,7.40
2022-11-22T09:09:36.836Z,7.30
2022-11-22T09:12:06.472Z,7.20
2022-11-22T09:14:36.331Z,7.20
2022-11-22T09:17:05.886Z,7.10
2022-11-22T09:19:34.307Z,7.10
2022-11-22T09:24:37.834Z,7.10
2022-11-22T09:27:06.283Z,7.10
2022-11-22T09:29:34.856Z,7.30
2022-11-22T09:32:03.494Z,7.30
2022-11-22T09:34:35.364Z,7.40
2022-11-22T09:37:03.910Z,7.40
2022-11-22T09:39:34.036Z,7.50
2022-11-22T09:42:28.315Z,7.60
2022-11-22T09:45:31.284Z,7.60
2022-11-22T09:48:09.870Z,7.60
2022-11-22T09:50:49.973Z,7.40
2022-11-22T09:53:26.252Z,7.60
2022-11-22T09:55:59.632Z,7.60
2022-11-22T09:58:33.444Z,7.60
2022-11-22T10:01:08.809Z,7.50
2022-11-22T10:03:47.010Z,7.50
2022-11-22T10:06:23.979Z,7.50
2022-11-22T10:09:08.329Z,7.50
2022-11-22T10:11:43.374Z,7.60
2022-11-22T10:14:23.213Z,7.50
2022-11-22T10:16:56.727Z,7.60
2022-11-22T10:19:31.293Z,7.60
2022-11-22T10:22:00.112Z,7.60
2022-11-22T10:24:30.587Z,7.50
2022-11-22T10:27:01.487Z,7.50
2022-11-22T10:29:38.827Z,7.50
2022-11-22T10:32:15.947Z,7.40
2022-11-22T10:34:56.012Z,7.40
2022-11-22T10:37:31.732Z,7.40
2022-11-22T10:40:09.230Z,7.50
2022-11-22T10:42:58.746Z,7.60
2022-11-22T10:45:34.207Z,7.60
2022-11-22T10:48:13.163Z,7.70
2022-11-22T10:50:55.329Z,7.70
2022-11-22T10:53:32.878Z,8.00
2022-11-22T10:56:10.123Z,8.00
2022-11-22T10:58:58.579Z,7.90
2022-11-22T11:01:34.504Z,7.80
2022-11-22T11:04:05.132Z,7.90
2022-11-22T11:07:04.593Z,7.90
2022-11-22T11:12:30.352Z,7.90
2022-11-22T11:15:05.246Z,8.00
2022-11-22T11:17:39.766Z,8.10
2022-11-22T11:20:21.083Z,7.90
2022-11-22T11:23:13.806Z,7.90
2022-11-22T11:25:42.368Z,7.90
2022-11-22T11:28:17.672Z,7.80
2022-11-22T11:30:49.980Z,7.90
2022-11-22T11:33:30.001Z,7.80
2022-11-22T11:36:04.061Z,7.90
2022-11-22T11:38:39.274Z,8.00
2022-11-22T11:41:24.833Z,8.00
2022-11-22T11:43:55.766Z,8.10
2022-11-22T11:46:28.244Z,8.10
2022-11-22T11:49:09.513Z,8.00
2022-11-22T11:51:40.253Z,8.10
2022-11-22T11:54:15.613Z,8.10
2022-11-22T11:56:49.205Z,8.10
2022-11-22T11:59:19.772Z,8.10
2022-11-22T12:02:00.345Z,8.20
2022-11-22T12:04:55.564Z,8.20
2022-11-22T12:07:31.120Z,8.10
2022-11-22T12:09:59.683Z,8.50
2022-11-22T12:12:41.656Z,8.20
2022-11-22T12:15:17.024Z,8.20
2022-11-22T12:17:53.737Z,8.30
2022-11-22T12:20:27.576Z,8.20
2022-11-22T12:23:07.276Z,8.20
2022-11-22T12:25:39.471Z,8.30
2022-11-22T12:28:20.252Z,8.30
2022-11-22T12:30:54.276Z,8.30
2022-11-22T12:33:28.715Z,8.20
2022-11-22T12:35:59.230Z,8.20
2022-11-22T12:38:33.437Z,8.20
2022-11-22T12:41:05.109Z,8.10
2022-11-22T12:43:38.919Z,8.10
2022-11-22T12:46:11.985Z,8.00
2022-11-22T12:48:48.971Z,8.00
2022-11-22T12:51:24.381Z,7.90
2022-11-22T12:53:54.487Z,8.00
2022-11-22T12:56:33.257Z,7.90
2022-11-22T12:59:12.700Z,7.80
2022-11-22T13:01:48.724Z,7.80
2022-11-22T13:04:27.712Z,7.80
2022-11-22T13:07:04.350Z,7.80
2022-11-22T13:09:49.141Z,7.90
2022-11-22T13:12:22.533Z,7.80
2022-11-22T13:14:55.180Z,7.80
2022-11-22T13:17:25.877Z,7.70
2022-11-22T13:20:00.214Z,7.70
2022-11-22T13:22:34.885Z,7.80
2022-11-22T13:25:27.344Z,7.70
2022-11-22T13:28:00.836Z,7.80
2022-11-22T13:30:31.830Z,7.80
2022-11-22T13:33:02.011Z,7.90
2022-11-22T13:35:36.233Z,7.80
2022-11-22T13:38:12.239Z,7.80
2022-11-22T13:40:43.578Z,7.70
2022-11-22T13:43:49.388Z,7.70
2022-11-22T13:46:53.735Z,7.60
2022-11-22T13:49:39.204Z,7.60
2022-11-22T13:52:52.017Z,7.60
2022-11-22T13:55:42.491Z,7.50
2022-11-22T13:58:56.533Z,7.50
2022-11-22T14:02:00.076Z,7.60
2022-11-22T14:04:40.785Z,7.60
2022-11-22T14:07:40.678Z,7.60
2022-11-22T14:10:31.292Z,7.70
2022-11-22T14:13:32.427Z,7.70
2022-11-22T14:16:40.025Z,7.60
2022-11-22T14:19:21.575Z,7.60
2022-11-22T14:22:07.882Z,7.60
2022-11-22T14:24:56.598Z,7.60
2022-11-22T14:27:37.843Z,7.60
2022-11-22T14:30:18.196Z,7.60
2022-11-22T14:32:57.369Z,7.70
2022-11-22T14:35:36.639Z,7.70
2022-11-22T14:38:21.788Z,7.70
2022-11-22T14:40:51.681Z,7.70
2022-11-22T14:43:31.398Z,7.70
2022-11-22T14:46:30.417Z,7.70
2022-11-22T14:49:06.640Z,7.60
2022-11-22T14:54:15.752Z,8.60
2022-11-22T14:56:46.728Z,7.60
2022-11-22T14:59:35.888Z,7.60
2022-11-22T15:02:42.839Z,7.60
2022-11-22T15:09:11.523Z,7.70
2022-11-22T15:09:13.832Z,7.60
2022-11-22T15:11:52.134Z,7.70
2022-11-22T15:14:54.243Z,7.80
2022-11-22T15:57:49.077Z,7.70
2022-11-22T16:00:22.970Z,7.70
2022-11-22T16:02:56.850Z,7.70
2022-11-22T16:06:06.351Z,7.70
2022-11-22T16:08:20.692Z,7.70
2022-11-22T16:10:52.873Z,7.70
2022-11-22T16:13:28.909Z,7.70
2022-11-22T16:16:18.785Z,7.80
2022-11-22T16:18:50.286Z,7.80
2022-11-22T16:21:25.206Z,7.80
2022-11-22T16:24:12.503Z,7.60
2022-11-22T16:26:41.262Z,7.70
2022-11-22T16:29:37.184Z,7.70
2022-11-22T16:32:11.361Z,7.70
2022-11-22T16:34:43.497Z,7.70
2022-11-22T16:37:38.899Z,7.70
2022-11-22T16:40:10.075Z,7.70
2022-11-22T16:42:39.474Z,7.70
2022-11-22T16:45:15.579Z,7.80
2022-11-22T16:47:44.803Z,7.80
2022-11-22T16:50:22.592Z,7.80
2022-11-22T16:53:02.670Z,7.70
2022-11-22T16:55:31.431Z,7.70
2022-11-22T16:58:00.097Z,7.70
2022-11-22T17:00:29.092Z,10.40
2022-11-22T17:02:57.645Z,7.90
2022-11-22T17:05:30.182Z,7.80
2022-11-22T17:10:27.649Z,7.70
2022-11-22T17:12:56.197Z,7.70
2022-11-22T17:15:26.882Z,7.70
2022-11-22T17:17:56.044Z,7.70
2022-11-22T17:20:32.031Z,7.70
2022-11-22T17:23:01.132Z,7.80
2022-11-22T17:25:29.966Z,7.90
2022-11-22T17:27:58.570Z,7.80
2022-11-22T17:43:05.611Z,7.80
2022-11-22T17:45:40.296Z,7.90
2022-11-22T17:50:37.762Z,7.90
2022-11-22T17:53:09.164Z,7.90
2022-11-22T17:56:10.116Z,7.80
2022-11-22T18:01:05.052Z,7.80
2022-11-22T18:06:03.481Z,7.70
2022-11-22T18:08:34.239Z,7.70
2022-11-22T18:11:03.244Z,7.60
2022-11-22T18:13:34.603Z,7.70
2022-11-22T18:16:05.662Z,7.70
2022-11-22T18:21:25.434Z,7.60
2022-11-22T18:23:55.233Z,7.60
2022-11-22T18:26:42.186Z,7.70
2022-11-22T18:29:41.750Z,7.80
2022-11-22T18:34:31.027Z,7.70
2022-11-22T18:37:02.453Z,7.70
2022-11-22T18:39:37.731Z,7.60
2022-11-22T18:42:09.995Z,7.60
2022-11-22T18:44:39.114Z,7.70
2022-11-22T18:47:07.876Z,7.70
2022-11-22T18:49:37.472Z,7.70
2022-11-22T18:52:06.601Z,7.70
2022-11-22T18:54:37.478Z,8.00
2022-11-22T18:57:06.452Z,8.20
2022-11-22T19:02:04.190Z,8.20
2022-11-22T19:04:33.647Z,8.20
2022-11-22T19:07:03.348Z,7.80
2022-11-22T19:09:32.533Z,7.90
2022-11-22T19:12:02.558Z,7.90
2022-11-22T19:14:42.369Z,7.80
2022-11-22T19:17:13.162Z,7.70
2022-11-22T19:19:42.031Z,7.70
2022-11-22T19:22:15.376Z,7.70
2022-11-22T19:24:47.425Z,7.60
2022-11-22T19:27:23.378Z,7.70
2022-11-22T19:29:54.460Z,7.70
2022-11-22T19:32:25.984Z,7.70
2022-11-22T19:34:55.108Z,7.90
2022-11-22T19:37:25.397Z,7.90
2022-11-22T19:39:53.965Z,7.90
2022-11-22T19:42:33.269Z,8.00
2022-11-22T19:45:06.115Z,8.20
2022-11-22T19:47:36.465Z,8.30
2022-11-22T19:50:08.669Z,8.30
2022-11-22T19:52:37.281Z,8.40
2022-11-22T19:55:09.414Z,8.40
2022-11-22T19:57:39.993Z,8.50
2022-11-22T20:00:11.988Z,8.20
2022-11-22T20:02:40.506Z,8.30
2022-11-22T20:05:10.537Z,8.20
2022-11-22T20:07:40.511Z,8.20
2022-11-22T20:10:10.744Z,8.20
2022-11-22T20:12:44.724Z,8.20
2022-11-22T20:15:14.762Z,8.10
2022-11-22T20:17:43.698Z,8.10
2022-11-22T20:20:13.664Z,8.10
2022-11-22T20:22:45.218Z,8.10
2022-11-22T20:25:14.460Z,8.10
2022-11-22T20:27:46.304Z,8.10
2022-11-22T20:30:17.620Z,8.10
2022-11-22T20:35:15.848Z,8.00
2022-11-22T20:37:48.549Z,8.20
2022-11-22T20:40:17.614Z,8.10
2022-11-22T20:42:50.825Z,8.40
2022-11-22T20:45:22.005Z,8.90
2022-11-22T20:47:56.578Z,8.80
2022-11-22T20:50:27.923Z,8.90
2022-11-22T20:52:56.969Z,9.20
2022-11-22T20:55:25.412Z,9.20
2022-11-22T20:57:55.300Z,9.20
2022-11-22T21:00:24.012Z,9.30
2022-11-22T21:02:52.644Z,9.40
2022-11-22T21:05:21.679Z,9.40
2022-11-22T21:07:50.407Z,9.30
2022-11-22T21:10:19.153Z,9.10
2022-11-22T21:12:47.619Z,9.10
2022-11-22T21:15:19.020Z,9.10
2022-11-22T21:18:17.209Z,9.10
2022-11-22T21:20:37.153Z,9.30
2022-11-22T21:23:07.084Z,9.00
2022-11-22T21:25:35.577Z,9.20
2022-11-22T21:28:06.426Z,9.20
2022-11-22T21:30:40.932Z,9.30
2022-11-22T21:33:09.376Z,9.40
2022-11-22T21:38:14.820Z,9.10
2022-11-22T21:40:51.706Z,9.20
2022-11-22T21:43:23.242Z,9.20
2022-11-22T21:45:54.097Z,9.10
2022-11-22T21:48:24.387Z,9.00
2022-11-22T21:50:56.934Z,9.00
2022-11-22T21:53:27.762Z,8.60
2022-11-22T21:55:57.810Z,8.20
2022-11-22T21:58:27.955Z,8.10
2022-11-22T22:01:01.736Z,8.10
2022-11-22T22:03:31.140Z,8.30
2022-11-22T22:05:59.999Z,8.10
2022-11-22T22:08:29.540Z,9.40
2022-11-22T22:11:01.031Z,8.20
2022-11-22T22:13:30.933Z,8.10
2022-11-22T22:16:03.927Z,8.00
2022-11-22T22:18:33.140Z,8.00
2022-11-22T22:23:32.253Z,7.90
2022-11-22T22:26:02.037Z,7.80
2022-11-22T22:28:30.911Z,7.90
2022-11-22T22:31:09.244Z,7.80
2022-11-22T22:33:39.705Z,7.80
2022-11-22T22:36:10.439Z,7.70
2022-11-22T22:38:39.908Z,7.70
2022-11-22T22:41:11.182Z,7.90
2022-11-22T22:43:43.949Z,8.00
2022-11-22T22:46:17.636Z,7.90
2022-11-22T22:48:49.845Z,8.00
2022-11-22T22:51:20.994Z,7.90
2022-11-22T22:56:21.313Z,7.80
2022-11-22T22:58:56.159Z,7.80
2022-11-22T23:01:29.293Z,7.80
2022-11-22T23:04:00.293Z,7.80
2022-11-22T23:06:31.807Z,7.80
2022-11-22T23:09:04.151Z,7.70
2022-11-22T23:11:52.034Z,7.70
2022-11-22T23:14:23.773Z,7.70
2022-11-22T23:19:35.992Z,7.60
2022-11-22T23:27:06.139Z,7.80
2022-11-22T23:29:36.356Z,7.50
2022-11-22T23:32:11.585Z,7.50
2022-11-22T23:39:41.836Z,7.70
2022-11-22T23:42:12.890Z,7.80
2022-11-22T23:44:42.299Z,7.70
2022-11-22T23:49:46.568Z,7.80
2022-11-22T23:52:17.585Z,7.70
2022-11-22T23:57:16.080Z,7.70
2022-11-22T23:59:47.216Z,7.70
